Tuckahoe, New York
Current Conditions -  °F | °C
As of 2:56 PM on Thursday 18 Dec 2014 (Local Time) from KHPN Reporting Station
Broken Clouds Broken Clouds  
Wind Chill: 30°   Ceiling: 3400
Heat Index: 40°   Visibility: 10mi
Dew Point: 25°   Wind: 20mph
Humidity: 55%   Direction: 290°WNW
Pressure: 29.9"   Gusts: 29mph
Location:  40.95°N, 73.83°W
Report Text: KHPN 181956Z 29017G25KT 10SM BKN034 04/M04 A2990 RMK AO2 SLP130 T00441039
Loading
Personal Weather Stations






























Interactive Weather Map New forecast layout! Learn more

10-Day Weather Forecast

Advertisements
Track Severe Weather on mobile